sensor_id;sensor_type;location;lat;lon;timestamp;P1;durP1;ratioP1;P2;durP2;ratioP2
45296;SDS011;31040;51.622;10.420;2023-11-21T00:01:34;8.15;;;5.65;;
45296;SDS011;31040;51.622;10.420;2023-11-21T00:04:02;6.90;;;5.00;;
45296;SDS011;31040;51.622;10.420;2023-11-21T00:06:29;7.45;;;4.43;;
45296;SDS011;31040;51.622;10.420;2023-11-21T00:08:57;6.07;;;4.65;;
45296;SDS011;31040;51.622;10.420;2023-11-21T00:11:24;9.93;;;5.60;;
45296;SDS011;31040;51.622;10.420;2023-11-21T00:13:51;7.60;;;5.60;;
45296;SDS011;31040;51.622;10.420;2023-11-21T00:16:19;7.45;;;5.05;;
45296;SDS011;31040;51.622;10.420;2023-11-21T00:18:48;8.02;;;4.95;;
45296;SDS011;31040;51.622;10.420;2023-11-21T00:21:17;5.90;;;4.85;;
45296;SDS011;31040;51.622;10.420;2023-11-21T00:23:44;7.25;;;5.10;;
45296;SDS011;31040;51.622;10.420;2023-11-21T00:26:12;9.82;;;5.45;;
45296;SDS011;31040;51.622;10.420;2023-11-21T00:28:40;8.55;;;5.10;;
45296;SDS011;31040;51.622;10.420;2023-11-21T00:31:08;7.20;;;4.72;;
45296;SDS011;31040;51.622;10.420;2023-11-21T00:33:35;8.45;;;5.93;;
45296;SDS011;31040;51.622;10.420;2023-11-21T00:36:03;8.27;;;5.68;;
45296;SDS011;31040;51.622;10.420;2023-11-21T00:38:32;6.32;;;4.90;;
45296;SDS011;31040;51.622;10.420;2023-11-21T00:41:00;7.03;;;5.10;;
45296;SDS011;31040;51.622;10.420;2023-11-21T00:43:28;7.85;;;5.72;;
45296;SDS011;31040;51.622;10.420;2023-11-21T00:45:56;9.30;;;5.88;;
45296;SDS011;31040;51.622;10.420;2023-11-21T00:48:23;9.35;;;6.57;;
45296;SDS011;31040;51.622;10.420;2023-11-21T00:50:51;8.25;;;6.38;;
45296;SDS011;31040;51.622;10.420;2023-11-21T00:53:18;9.35;;;7.35;;
45296;SDS011;31040;51.622;10.420;2023-11-21T00:55:46;10.45;;;6.03;;
45296;SDS011;31040;51.622;10.420;2023-11-21T00:58:14;9.27;;;6.22;;
45296;SDS011;31040;51.622;10.420;2023-11-21T01:00:41;11.32;;;5.57;;
45296;SDS011;31040;51.622;10.420;2023-11-21T01:03:09;6.40;;;5.35;;
45296;SDS011;31040;51.622;10.420;2023-11-21T01:05:36;13.07;;;5.97;;
45296;SDS011;31040;51.622;10.420;2023-11-21T01:08:04;7.35;;;5.93;;
45296;SDS011;31040;51.622;10.420;2023-11-21T01:10:32;9.70;;;6.85;;
45296;SDS011;31040;51.622;10.420;2023-11-21T01:13:00;7.45;;;5.65;;
45296;SDS011;31040;51.622;10.420;2023-11-21T01:15:28;11.68;;;6.13;;
45296;SDS011;31040;51.622;10.420;2023-11-21T01:17:55;11.73;;;6.65;;
45296;SDS011;31040;51.622;10.420;2023-11-21T01:20:23;9.57;;;6.80;;
45296;SDS011;31040;51.622;10.420;2023-11-21T01:22:50;10.60;;;7.07;;
45296;SDS011;31040;51.622;10.420;2023-11-21T01:25:18;9.45;;;6.32;;
45296;SDS011;31040;51.622;10.420;2023-11-21T01:27:45;10.90;;;6.00;;
45296;SDS011;31040;51.622;10.420;2023-11-21T01:30:13;8.50;;;6.05;;
45296;SDS011;31040;51.622;10.420;2023-11-21T01:32:40;14.32;;;8.40;;
45296;SDS011;31040;51.622;10.420;2023-11-21T01:35:08;8.25;;;7.22;;
45296;SDS011;31040;51.622;10.420;2023-11-21T01:37:37;8.30;;;6.47;;
45296;SDS011;31040;51.622;10.420;2023-11-21T01:40:05;9.85;;;7.30;;
45296;SDS011;31040;51.622;10.420;2023-11-21T01:42:36;9.52;;;6.93;;
45296;SDS011;31040;51.622;10.420;2023-11-21T01:45:04;8.77;;;7.18;;
45296;SDS011;31040;51.622;10.420;2023-11-21T01:47:32;11.35;;;7.07;;
45296;SDS011;31040;51.622;10.420;2023-11-21T01:50:00;15.85;;;7.75;;
45296;SDS011;31040;51.622;10.420;2023-11-21T01:52:28;10.23;;;7.70;;
45296;SDS011;31040;51.622;10.420;2023-11-21T01:54:56;10.77;;;7.55;;
45296;SDS011;31040;51.622;10.420;2023-11-21T01:57:24;10.30;;;7.80;;
45296;SDS011;31040;51.622;10.420;2023-11-21T01:59:52;10.35;;;7.20;;
45296;SDS011;31040;51.622;10.420;2023-11-21T02:02:21;9.38;;;6.95;;
45296;SDS011;31040;51.622;10.420;2023-11-21T02:04:48;10.00;;;7.40;;
45296;SDS011;31040;51.622;10.420;2023-11-21T02:07:16;10.75;;;8.20;;
45296;SDS011;31040;51.622;10.420;2023-11-21T02:09:45;9.98;;;7.50;;
45296;SDS011;31040;51.622;10.420;2023-11-21T02:12:14;12.45;;;9.60;;
45296;SDS011;31040;51.622;10.420;2023-11-21T02:14:42;10.82;;;8.13;;
45296;SDS011;31040;51.622;10.420;2023-11-21T02:17:11;9.90;;;7.95;;
45296;SDS011;31040;51.622;10.420;2023-11-21T02:19:39;9.80;;;7.57;;
45296;SDS011;31040;51.622;10.420;2023-11-21T02:22:07;12.02;;;8.30;;
45296;SDS011;31040;51.622;10.420;2023-11-21T02:24:34;11.43;;;6.93;;
45296;SDS011;31040;51.622;10.420;2023-11-21T02:27:03;11.25;;;8.10;;
45296;SDS011;31040;51.622;10.420;2023-11-21T02:29:31;14.75;;;8.82;;
45296;SDS011;31040;51.622;10.420;2023-11-21T02:31:58;12.52;;;8.35;;
45296;SDS011;31040;51.622;10.420;2023-11-21T02:34:26;10.88;;;7.68;;
45296;SDS011;31040;51.622;10.420;2023-11-21T02:36:53;10.50;;;7.68;;
45296;SDS011;31040;51.622;10.420;2023-11-21T02:39:21;13.60;;;9.00;;
45296;SDS011;31040;51.622;10.420;2023-11-21T02:41:50;12.68;;;7.47;;
45296;SDS011;31040;51.622;10.420;2023-11-21T02:44:17;8.23;;;7.10;;
45296;SDS011;31040;51.622;10.420;2023-11-21T02:46:45;13.15;;;7.63;;
45296;SDS011;31040;51.622;10.420;2023-11-21T02:49:13;10.65;;;7.45;;
45296;SDS011;31040;51.622;10.420;2023-11-21T02:51:41;8.88;;;6.60;;
45296;SDS011;31040;51.622;10.420;2023-11-21T02:54:08;9.40;;;6.88;;
45296;SDS011;31040;51.622;10.420;2023-11-21T02:56:36;10.85;;;7.15;;
45296;SDS011;31040;51.622;10.420;2023-11-21T02:59:03;9.13;;;7.10;;
45296;SDS011;31040;51.622;10.420;2023-11-21T03:01:31;10.70;;;7.38;;
45296;SDS011;31040;51.622;10.420;2023-11-21T03:03:58;9.90;;;7.28;;
45296;SDS011;31040;51.622;10.420;2023-11-21T03:06:26;12.93;;;7.78;;
45296;SDS011;31040;51.622;10.420;2023-11-21T03:08:54;10.25;;;7.38;;
45296;SDS011;31040;51.622;10.420;2023-11-21T03:11:21;12.30;;;8.60;;
45296;SDS011;31040;51.622;10.420;2023-11-21T03:13:48;9.93;;;6.82;;
45296;SDS011;31040;51.622;10.420;2023-11-21T03:16:16;12.35;;;8.05;;
45296;SDS011;31040;51.622;10.420;2023-11-21T03:18:45;9.93;;;7.28;;
45296;SDS011;31040;51.622;10.420;2023-11-21T03:21:13;11.60;;;7.88;;
45296;SDS011;31040;51.622;10.420;2023-11-21T03:23:41;9.48;;;7.95;;
45296;SDS011;31040;51.622;10.420;2023-11-21T03:26:11;10.02;;;6.93;;
45296;SDS011;31040;51.622;10.420;2023-11-21T03:28:39;8.27;;;6.35;;
45296;SDS011;31040;51.622;10.420;2023-11-21T03:31:07;12.35;;;7.57;;
45296;SDS011;31040;51.622;10.420;2023-11-21T03:33:35;8.98;;;7.30;;
45296;SDS011;31040;51.622;10.420;2023-11-21T03:36:03;10.32;;;7.65;;
45296;SDS011;31040;51.622;10.420;2023-11-21T03:38:30;8.90;;;7.13;;
45296;SDS011;31040;51.622;10.420;2023-11-21T03:40:58;8.57;;;6.70;;
45296;SDS011;31040;51.622;10.420;2023-11-21T03:43:25;12.57;;;7.05;;
45296;SDS011;31040;51.622;10.420;2023-11-21T03:45:53;8.75;;;7.03;;
45296;SDS011;31040;51.622;10.420;2023-11-21T03:48:20;8.63;;;6.80;;
45296;SDS011;31040;51.622;10.420;2023-11-21T03:50:48;9.32;;;6.75;;
45296;SDS011;31040;51.622;10.420;2023-11-21T03:53:15;10.00;;;7.72;;
45296;SDS011;31040;51.622;10.420;2023-11-21T03:55:43;9.70;;;6.25;;
45296;SDS011;31040;51.622;10.420;2023-11-21T03:58:10;11.30;;;7.18;;
45296;SDS011;31040;51.622;10.420;2023-11-21T04:00:38;11.05;;;6.43;;
45296;SDS011;31040;51.622;10.420;2023-11-21T04:03:05;9.18;;;6.50;;
45296;SDS011;31040;51.622;10.420;2023-11-21T04:05:33;9.52;;;7.30;;
45296;SDS011;31040;51.622;10.420;2023-11-21T04:08:00;10.75;;;8.13;;
45296;SDS011;31040;51.622;10.420;2023-11-21T04:10:27;12.32;;;7.93;;
45296;SDS011;31040;51.622;10.420;2023-11-21T04:12:55;12.65;;;8.07;;
45296;SDS011;31040;51.622;10.420;2023-11-21T04:15:22;10.80;;;8.23;;
45296;SDS011;31040;51.622;10.420;2023-11-21T04:17:50;11.63;;;6.75;;
45296;SDS011;31040;51.622;10.420;2023-11-21T04:20:17;10.07;;;6.90;;
45296;SDS011;31040;51.622;10.420;2023-11-21T04:22:45;12.85;;;9.07;;
45296;SDS011;31040;51.622;10.420;2023-11-21T04:25:13;12.60;;;8.45;;
45296;SDS011;31040;51.622;10.420;2023-11-21T04:27:41;13.00;;;8.32;;
45296;SDS011;31040;51.622;10.420;2023-11-21T04:30:10;15.40;;;8.00;;
45296;SDS011;31040;51.622;10.420;2023-11-21T04:32:38;13.10;;;8.88;;
45296;SDS011;31040;51.622;10.420;2023-11-21T04:35:06;13.55;;;8.50;;
45296;SDS011;31040;51.622;10.420;2023-11-21T04:37:35;17.67;;;9.50;;
45296;SDS011;31040;51.622;10.420;2023-11-21T04:40:03;14.18;;;9.30;;
45296;SDS011;31040;51.622;10.420;2023-11-21T04:42:34;14.85;;;9.90;;
45296;SDS011;31040;51.622;10.420;2023-11-21T04:45:05;17.95;;;8.65;;
45296;SDS011;31040;51.622;10.420;2023-11-21T04:47:39;10.45;;;7.18;;
45296;SDS011;31040;51.622;10.420;2023-11-21T04:50:06;13.32;;;8.05;;
45296;SDS011;31040;51.622;10.420;2023-11-21T04:52:34;13.30;;;7.30;;
45296;SDS011;31040;51.622;10.420;2023-11-21T04:55:01;12.25;;;7.32;;
45296;SDS011;31040;51.622;10.420;2023-11-21T04:57:29;12.82;;;7.28;;
45296;SDS011;31040;51.622;10.420;2023-11-21T04:59:57;11.05;;;7.00;;
45296;SDS011;31040;51.622;10.420;2023-11-21T05:02:24;13.75;;;7.40;;
45296;SDS011;31040;51.622;10.420;2023-11-21T05:05:01;12.25;;;7.28;;
45296;SDS011;31040;51.622;10.420;2023-11-21T05:07:29;13.13;;;7.32;;
45296;SDS011;31040;51.622;10.420;2023-11-21T05:09:58;10.63;;;6.75;;
45296;SDS011;31040;51.622;10.420;2023-11-21T05:12:25;10.18;;;7.22;;
45296;SDS011;31040;51.622;10.420;2023-11-21T05:14:53;13.25;;;7.28;;
45296;SDS011;31040;51.622;10.420;2023-11-21T05:17:20;10.40;;;6.97;;
45296;SDS011;31040;51.622;10.420;2023-11-21T05:19:49;19.02;;;7.38;;
45296;SDS011;31040;51.622;10.420;2023-11-21T05:22:16;10.80;;;7.18;;
45296;SDS011;31040;51.622;10.420;2023-11-21T05:24:43;14.18;;;7.57;;
45296;SDS011;31040;51.622;10.420;2023-11-21T05:27:11;14.07;;;7.63;;
45296;SDS011;31040;51.622;10.420;2023-11-21T05:29:39;13.02;;;7.22;;
45296;SDS011;31040;51.622;10.420;2023-11-21T05:32:06;13.77;;;8.18;;
45296;SDS011;31040;51.622;10.420;2023-11-21T05:34:34;12.25;;;7.20;;
45296;SDS011;31040;51.622;10.420;2023-11-21T05:37:01;10.60;;;7.40;;
45296;SDS011;31040;51.622;10.420;2023-11-21T05:39:29;12.38;;;8.10;;
45296;SDS011;31040;51.622;10.420;2023-11-21T05:41:56;11.25;;;7.78;;
45296;SDS011;31040;51.622;10.420;2023-11-21T05:44:24;18.40;;;8.75;;
45296;SDS011;31040;51.622;10.420;2023-11-21T05:46:51;13.95;;;8.30;;
45296;SDS011;31040;51.622;10.420;2023-11-21T05:49:19;11.18;;;8.32;;
45296;SDS011;31040;51.622;10.420;2023-11-21T05:51:49;15.82;;;8.85;;
45296;SDS011;31040;51.622;10.420;2023-11-21T05:54:20;15.52;;;8.85;;
45296;SDS011;31040;51.622;10.420;2023-11-21T05:56:47;16.30;;;8.98;;
45296;SDS011;31040;51.622;10.420;2023-11-21T05:59:15;15.77;;;8.95;;
45296;SDS011;31040;51.622;10.420;2023-11-21T06:01:45;18.08;;;9.20;;
45296;SDS011;31040;51.622;10.420;2023-11-21T06:04:13;13.68;;;7.80;;
45296;SDS011;31040;51.622;10.420;2023-11-21T06:06:41;14.82;;;8.40;;
45296;SDS011;31040;51.622;10.420;2023-11-21T06:09:08;16.33;;;8.70;;
45296;SDS011;31040;51.622;10.420;2023-11-21T06:11:35;12.93;;;8.23;;
45296;SDS011;31040;51.622;10.420;2023-11-21T06:14:03;19.13;;;9.85;;
45296;SDS011;31040;51.622;10.420;2023-11-21T06:16:34;16.00;;;8.82;;
45296;SDS011;31040;51.622;10.420;2023-11-21T06:19:02;20.33;;;9.00;;
45296;SDS011;31040;51.622;10.420;2023-11-21T06:21:29;14.38;;;9.13;;
45296;SDS011;31040;51.622;10.420;2023-11-21T06:23:57;15.88;;;8.68;;
45296;SDS011;31040;51.622;10.420;2023-11-21T06:26:24;12.40;;;8.20;;
45296;SDS011;31040;51.622;10.420;2023-11-21T06:28:52;16.40;;;8.80;;
45296;SDS011;31040;51.622;10.420;2023-11-21T06:31:20;18.58;;;9.82;;
45296;SDS011;31040;51.622;10.420;2023-11-21T06:33:48;17.30;;;9.30;;
45296;SDS011;31040;51.622;10.420;2023-11-21T06:36:18;16.05;;;9.52;;
45296;SDS011;31040;51.622;10.420;2023-11-21T06:38:46;15.48;;;9.38;;
45296;SDS011;31040;51.622;10.420;2023-11-21T06:41:13;21.65;;;9.07;;
45296;SDS011;31040;51.622;10.420;2023-11-21T06:43:43;19.55;;;9.98;;
45296;SDS011;31040;51.622;10.420;2023-11-21T06:46:13;20.10;;;9.98;;
45296;SDS011;31040;51.622;10.420;2023-11-21T06:48:43;12.48;;;8.82;;
45296;SDS011;31040;51.622;10.420;2023-11-21T06:51:11;13.57;;;9.70;;
45296;SDS011;31040;51.622;10.420;2023-11-21T06:53:39;16.65;;;10.75;;
45296;SDS011;31040;51.622;10.420;2023-11-21T06:56:19;23.08;;;11.38;;
45296;SDS011;31040;51.622;10.420;2023-11-21T06:58:47;21.00;;;10.93;;
45296;SDS011;31040;51.622;10.420;2023-11-21T07:01:15;15.95;;;10.55;;
45296;SDS011;31040;51.622;10.420;2023-11-21T07:03:43;21.38;;;11.35;;
45296;SDS011;31040;51.622;10.420;2023-11-21T07:06:10;22.08;;;10.60;;
45296;SDS011;31040;51.622;10.420;2023-11-21T07:08:38;20.60;;;10.68;;
45296;SDS011;31040;51.622;10.420;2023-11-21T07:11:05;18.02;;;10.05;;
45296;SDS011;31040;51.622;10.420;2023-11-21T07:13:33;29.08;;;11.23;;
45296;SDS011;31040;51.622;10.420;2023-11-21T07:16:01;19.02;;;9.93;;
45296;SDS011;31040;51.622;10.420;2023-11-21T07:18:29;25.45;;;12.25;;
45296;SDS011;31040;51.622;10.420;2023-11-21T07:20:57;24.42;;;11.48;;
45296;SDS011;31040;51.622;10.420;2023-11-21T07:23:25;24.13;;;11.45;;
45296;SDS011;31040;51.622;10.420;2023-11-21T07:25:52;22.65;;;11.35;;
45296;SDS011;31040;51.622;10.420;2023-11-21T07:28:20;26.98;;;11.65;;
45296;SDS011;31040;51.622;10.420;2023-11-21T07:30:47;33.92;;;13.40;;
45296;SDS011;31040;51.622;10.420;2023-11-21T07:33:14;27.63;;;12.65;;
45296;SDS011;31040;51.622;10.420;2023-11-21T07:35:42;24.05;;;11.73;;
45296;SDS011;31040;51.622;10.420;2023-11-21T07:38:10;25.45;;;12.25;;
45296;SDS011;31040;51.622;10.420;2023-11-21T07:40:37;28.95;;;12.32;;
45296;SDS011;31040;51.622;10.420;2023-11-21T07:43:05;25.40;;;12.63;;
45296;SDS011;31040;51.622;10.420;2023-11-21T07:45:32;29.40;;;12.43;;
45296;SDS011;31040;51.622;10.420;2023-11-21T07:47:59;28.48;;;13.88;;
45296;SDS011;31040;51.622;10.420;2023-11-21T07:50:31;30.70;;;13.02;;
45296;SDS011;31040;51.622;10.420;2023-11-21T07:52:58;24.13;;;12.75;;
45296;SDS011;31040;51.622;10.420;2023-11-21T07:55:26;25.85;;;12.98;;
45296;SDS011;31040;51.622;10.420;2023-11-21T07:57:53;26.75;;;12.27;;
45296;SDS011;31040;51.622;10.420;2023-11-21T08:00:21;35.72;;;13.48;;
45296;SDS011;31040;51.622;10.420;2023-11-21T08:02:48;31.13;;;13.48;;
45296;SDS011;31040;51.622;10.420;2023-11-21T08:05:16;27.98;;;13.60;;
45296;SDS011;31040;51.622;10.420;2023-11-21T08:07:53;30.00;;;13.68;;
45296;SDS011;31040;51.622;10.420;2023-11-21T08:10:21;31.45;;;13.77;;
45296;SDS011;31040;51.622;10.420;2023-11-21T08:12:48;35.25;;;14.55;;
45296;SDS011;31040;51.622;10.420;2023-11-21T08:15:17;33.85;;;13.75;;
45296;SDS011;31040;51.622;10.420;2023-11-21T08:17:44;32.67;;;13.70;;
45296;SDS011;31040;51.622;10.420;2023-11-21T08:20:12;38.28;;;15.55;;
45296;SDS011;31040;51.622;10.420;2023-11-21T08:22:43;37.90;;;13.35;;
45296;SDS011;31040;51.622;10.420;2023-11-21T08:25:10;35.70;;;13.85;;
45296;SDS011;31040;51.622;10.420;2023-11-21T08:27:39;34.25;;;13.10;;
45296;SDS011;31040;51.622;10.420;2023-11-21T08:30:06;31.75;;;13.27;;
45296;SDS011;31040;51.622;10.420;2023-11-21T08:32:34;30.52;;;13.40;;
45296;SDS011;31040;51.622;10.420;2023-11-21T08:35:02;37.00;;;14.77;;
45296;SDS011;31040;51.622;10.420;2023-11-21T08:37:29;34.05;;;13.93;;
45296;SDS011;31040;51.622;10.420;2023-11-21T08:39:59;31.58;;;14.13;;
45296;SDS011;31040;51.622;10.420;2023-11-21T08:42:27;32.38;;;15.20;;
45296;SDS011;31040;51.622;10.420;2023-11-21T08:44:56;33.03;;;14.60;;
45296;SDS011;31040;51.622;10.420;2023-11-21T08:47:27;33.60;;;14.10;;
45296;SDS011;31040;51.622;10.420;2023-11-21T08:49:55;38.85;;;15.15;;
45296;SDS011;31040;51.622;10.420;2023-11-21T08:52:22;32.35;;;15.07;;
45296;SDS011;31040;51.622;10.420;2023-11-21T08:54:50;35.05;;;13.82;;
45296;SDS011;31040;51.622;10.420;2023-11-21T08:57:23;38.10;;;14.93;;
45296;SDS011;31040;51.622;10.420;2023-11-21T08:59:50;32.60;;;14.30;;
45296;SDS011;31040;51.622;10.420;2023-11-21T09:02:22;35.65;;;14.52;;
45296;SDS011;31040;51.622;10.420;2023-11-21T09:04:50;31.55;;;14.35;;
45296;SDS011;31040;51.622;10.420;2023-11-21T09:07:19;31.85;;;13.20;;
45296;SDS011;31040;51.622;10.420;2023-11-21T09:09:47;34.75;;;16.00;;
45296;SDS011;31040;51.622;10.420;2023-11-21T09:12:15;35.67;;;14.18;;
45296;SDS011;31040;51.622;10.420;2023-11-21T09:14:43;40.38;;;13.90;;
45296;SDS011;31040;51.622;10.420;2023-11-21T09:17:10;32.15;;;12.38;;
45296;SDS011;31040;51.622;10.420;2023-11-21T09:19:38;34.78;;;14.20;;
45296;SDS011;31040;51.622;10.420;2023-11-21T09:22:06;37.85;;;13.30;;
45296;SDS011;31040;51.622;10.420;2023-11-21T09:24:33;34.17;;;13.30;;
45296;SDS011;31040;51.622;10.420;2023-11-21T09:27:03;36.97;;;14.80;;
45296;SDS011;31040;51.622;10.420;2023-11-21T09:29:31;36.00;;;14.73;;
45296;SDS011;31040;51.622;10.420;2023-11-21T09:31:59;34.92;;;15.75;;
45296;SDS011;31040;51.622;10.420;2023-11-21T09:34:27;35.50;;;13.93;;
45296;SDS011;31040;51.622;10.420;2023-11-21T09:36:55;34.58;;;12.65;;
45296;SDS011;31040;51.622;10.420;2023-11-21T09:39:22;26.65;;;12.95;;
45296;SDS011;31040;51.622;10.420;2023-11-21T09:41:51;28.13;;;14.07;;
45296;SDS011;31040;51.622;10.420;2023-11-21T09:44:22;25.05;;;12.68;;
45296;SDS011;31040;51.622;10.420;2023-11-21T09:46:52;28.48;;;14.85;;
45296;SDS011;31040;51.622;10.420;2023-11-21T09:49:22;26.60;;;13.55;;
45296;SDS011;31040;51.622;10.420;2023-11-21T09:51:54;23.95;;;12.25;;
45296;SDS011;31040;51.622;10.420;2023-11-21T09:54:25;24.30;;;11.68;;
45296;SDS011;31040;51.622;10.420;2023-11-21T09:56:53;23.70;;;12.50;;
45296;SDS011;31040;51.622;10.420;2023-11-21T09:59:20;22.00;;;11.95;;
45296;SDS011;31040;51.622;10.420;2023-11-21T10:01:48;22.52;;;11.75;;
45296;SDS011;31040;51.622;10.420;2023-11-21T10:04:16;17.88;;;9.38;;
45296;SDS011;31040;51.622;10.420;2023-11-21T10:06:44;15.30;;;9.35;;
45296;SDS011;31040;51.622;10.420;2023-11-21T10:09:12;21.05;;;9.95;;
45296;SDS011;31040;51.622;10.420;2023-11-21T10:11:41;18.48;;;10.10;;
45296;SDS011;31040;51.622;10.420;2023-11-21T10:14:10;20.40;;;11.43;;
45296;SDS011;31040;51.622;10.420;2023-11-21T10:16:41;18.80;;;10.20;;
45296;SDS011;31040;51.622;10.420;2023-11-21T10:19:11;20.33;;;11.98;;
45296;SDS011;31040;51.622;10.420;2023-11-21T10:21:42;15.75;;;10.05;;
45296;SDS011;31040;51.622;10.420;2023-11-21T10:24:09;16.02;;;10.05;;
45296;SDS011;31040;51.622;10.420;2023-11-21T10:26:39;16.75;;;8.43;;
45296;SDS011;31040;51.622;10.420;2023-11-21T10:29:18;16.98;;;8.80;;
45296;SDS011;31040;51.622;10.420;2023-11-21T10:31:51;16.90;;;10.20;;
45296;SDS011;31040;51.622;10.420;2023-11-21T10:34:21;12.85;;;8.52;;
45296;SDS011;31040;51.622;10.420;2023-11-21T10:36:49;17.08;;;8.55;;
45296;SDS011;31040;51.622;10.420;2023-11-21T10:39:17;16.50;;;9.60;;
45296;SDS011;31040;51.622;10.420;2023-11-21T10:41:46;14.55;;;8.25;;
45296;SDS011;31040;51.622;10.420;2023-11-21T10:44:14;18.05;;;9.10;;
45296;SDS011;31040;51.622;10.420;2023-11-21T10:46:50;19.35;;;9.85;;
45296;SDS011;31040;51.622;10.420;2023-11-21T10:49:19;17.20;;;9.35;;
45296;SDS011;31040;51.622;10.420;2023-11-21T10:51:47;17.65;;;8.98;;
45296;SDS011;31040;51.622;10.420;2023-11-21T10:54:19;15.00;;;8.77;;
45296;SDS011;31040;51.622;10.420;2023-11-21T10:56:50;18.48;;;10.20;;
45296;SDS011;31040;51.622;10.420;2023-11-21T10:59:18;14.57;;;8.85;;
45296;SDS011;31040;51.622;10.420;2023-11-21T11:01:47;16.08;;;9.05;;
45296;SDS011;31040;51.622;10.420;2023-11-21T11:04:19;14.40;;;8.48;;
45296;SDS011;31040;51.622;10.420;2023-11-21T11:06:51;17.60;;;9.23;;
45296;SDS011;31040;51.622;10.420;2023-11-21T11:09:18;15.13;;;9.07;;
45296;SDS011;31040;51.622;10.420;2023-11-21T11:11:46;16.02;;;8.70;;
45296;SDS011;31040;51.622;10.420;2023-11-21T11:14:13;15.32;;;9.93;;
45296;SDS011;31040;51.622;10.420;2023-11-21T11:16:41;16.58;;;8.57;;
45296;SDS011;31040;51.622;10.420;2023-11-21T11:19:12;14.23;;;8.45;;
45296;SDS011;31040;51.622;10.420;2023-11-21T11:24:30;17.70;;;9.70;;
45296;SDS011;31040;51.622;10.420;2023-11-21T11:35:10;19.90;;;11.65;;
45296;SDS011;31040;51.622;10.420;2023-11-21T11:37:43;16.23;;;10.70;;
45296;SDS011;31040;51.622;10.420;2023-11-21T11:40:11;18.80;;;11.15;;
45296;SDS011;31040;51.622;10.420;2023-11-21T11:42:39;16.25;;;10.63;;
45296;SDS011;31040;51.622;10.420;2023-11-21T11:45:32;17.52;;;10.55;;
45296;SDS011;31040;51.622;10.420;2023-11-21T11:47:57;27.92;;;11.98;;
45296;SDS011;31040;51.622;10.420;2023-11-21T11:50:26;16.52;;;10.15;;
45296;SDS011;31040;51.622;10.420;2023-11-21T11:52:55;15.38;;;9.52;;
45296;SDS011;31040;51.622;10.420;2023-11-21T11:55:38;18.55;;;10.65;;
45296;SDS011;31040;51.622;10.420;2023-11-21T11:58:06;19.13;;;9.80;;
45296;SDS011;31040;51.622;10.420;2023-11-21T12:00:34;19.75;;;11.35;;
45296;SDS011;31040;51.622;10.420;2023-11-21T12:03:08;19.45;;;10.52;;
45296;SDS011;31040;51.622;10.420;2023-11-21T12:05:36;24.95;;;13.95;;
45296;SDS011;31040;51.622;10.420;2023-11-21T12:08:11;16.73;;;11.38;;
45296;SDS011;31040;51.622;10.420;2023-11-21T12:10:39;15.32;;;10.50;;
45296;SDS011;31040;51.622;10.420;2023-11-21T12:13:08;14.13;;;8.65;;
45296;SDS011;31040;51.622;10.420;2023-11-21T12:15:37;14.50;;;9.60;;
45296;SDS011;31040;51.622;10.420;2023-11-21T12:18:06;15.77;;;10.20;;
45296;SDS011;31040;51.622;10.420;2023-11-21T12:20:34;14.40;;;9.68;;
45296;SDS011;31040;51.622;10.420;2023-11-21T12:23:06;14.15;;;9.45;;
45296;SDS011;31040;51.622;10.420;2023-11-21T12:25:36;7.57;;;5.00;;
45296;SDS011;31040;51.622;10.420;2023-11-21T12:28:09;2.55;;;1.33;;
45296;SDS011;31040;51.622;10.420;2023-11-21T12:30:37;1.92;;;1.05;;
45296;SDS011;31040;51.622;10.420;2023-11-21T12:33:05;1.40;;;1.10;;
45296;SDS011;31040;51.622;10.420;2023-11-21T12:35:36;0.85;;;0.80;;
45296;SDS011;31040;51.622;10.420;2023-11-21T12:38:04;1.60;;;1.17;;
45296;SDS011;31040;51.622;10.420;2023-11-21T12:40:32;1.40;;;1.20;;
45296;SDS011;31040;51.622;10.420;2023-11-21T12:42:59;3.15;;;1.60;;
45296;SDS011;31040;51.622;10.420;2023-11-21T12:45:30;2.03;;;1.55;;
45296;SDS011;31040;51.622;10.420;2023-11-21T12:48:01;1.50;;;1.40;;
45296;SDS011;31040;51.622;10.420;2023-11-21T12:50:35;2.22;;;1.60;;
45296;SDS011;31040;51.622;10.420;2023-11-21T12:53:05;2.70;;;2.40;;
45296;SDS011;31040;51.622;10.420;2023-11-21T12:55:33;2.45;;;2.13;;
45296;SDS011;31040;51.622;10.420;2023-11-21T12:58:05;3.40;;;2.78;;
45296;SDS011;31040;51.622;10.420;2023-11-21T13:03:06;3.85;;;2.75;;
45296;SDS011;31040;51.622;10.420;2023-11-21T13:05:35;3.47;;;2.70;;
45296;SDS011;31040;51.622;10.420;2023-11-21T13:08:08;3.35;;;2.88;;
45296;SDS011;31040;51.622;10.420;2023-11-21T13:10:39;4.90;;;3.10;;
45296;SDS011;31040;51.622;10.420;2023-11-21T13:13:10;5.68;;;3.53;;
45296;SDS011;31040;51.622;10.420;2023-11-21T13:18:17;6.80;;;3.97;;
45296;SDS011;31040;51.622;10.420;2023-11-21T13:20:44;6.97;;;4.63;;
45296;SDS011;31040;51.622;10.420;2023-11-21T13:23:13;7.20;;;4.93;;
45296;SDS011;31040;51.622;10.420;2023-11-21T13:25:42;5.93;;;4.05;;
45296;SDS011;31040;51.622;10.420;2023-11-21T13:28:19;6.50;;;4.75;;
45296;SDS011;31040;51.622;10.420;2023-11-21T13:30:48;7.43;;;4.80;;
45296;SDS011;31040;51.622;10.420;2023-11-21T13:33:18;7.82;;;5.13;;
45296;SDS011;31040;51.622;10.420;2023-11-21T13:35:48;7.03;;;4.45;;
45296;SDS011;31040;51.622;10.420;2023-11-21T13:38:18;3.75;;;3.17;;
45296;SDS011;31040;51.622;10.420;2023-11-21T13:40:52;5.63;;;4.38;;
45296;SDS011;31040;51.622;10.420;2023-11-21T13:43:24;4.07;;;2.97;;
45296;SDS011;31040;51.622;10.420;2023-11-21T13:45:53;5.53;;;4.30;;
45296;SDS011;31040;51.622;10.420;2023-11-21T13:48:26;4.82;;;4.28;;
45296;SDS011;31040;51.622;10.420;2023-11-21T13:51:11;6.43;;;4.55;;
45296;SDS011;31040;51.622;10.420;2023-11-21T13:53:47;6.70;;;4.63;;
45296;SDS011;31040;51.622;10.420;2023-11-21T13:56:17;4.72;;;3.33;;
45296;SDS011;31040;51.622;10.420;2023-11-21T13:58:54;4.80;;;3.20;;
45296;SDS011;31040;51.622;10.420;2023-11-21T14:01:26;7.13;;;3.67;;
45296;SDS011;31040;51.622;10.420;2023-11-21T14:03:57;5.27;;;3.40;;
45296;SDS011;31040;51.622;10.420;2023-11-21T14:06:29;5.43;;;3.58;;
45296;SDS011;31040;51.622;10.420;2023-11-21T14:09:02;4.15;;;3.38;;
45296;SDS011;31040;51.622;10.420;2023-11-21T14:11:32;4.35;;;3.90;;
45296;SDS011;31040;51.622;10.420;2023-11-21T14:14:08;5.50;;;4.10;;
45296;SDS011;31040;51.622;10.420;2023-11-21T14:16:36;5.25;;;3.83;;
45296;SDS011;31040;51.622;10.420;2023-11-21T14:19:03;4.70;;;3.60;;
45296;SDS011;31040;51.622;10.420;2023-11-21T14:21:45;4.40;;;3.45;;
45296;SDS011;31040;51.622;10.420;2023-11-21T14:24:13;5.65;;;4.25;;
45296;SDS011;31040;51.622;10.420;2023-11-21T14:26:41;5.65;;;3.92;;
45296;SDS011;31040;51.622;10.420;2023-11-21T14:29:09;6.43;;;4.22;;
45296;SDS011;31040;51.622;10.420;2023-11-21T14:31:40;6.00;;;3.53;;
45296;SDS011;31040;51.622;10.420;2023-11-21T14:34:08;5.55;;;4.55;;
45296;SDS011;31040;51.622;10.420;2023-11-21T14:36:35;6.07;;;4.55;;
45296;SDS011;31040;51.622;10.420;2023-11-21T14:39:03;7.30;;;5.25;;
45296;SDS011;31040;51.622;10.420;2023-11-21T14:41:37;5.50;;;4.25;;
45296;SDS011;31040;51.622;10.420;2023-11-21T14:44:05;7.28;;;4.45;;
45296;SDS011;31040;51.622;10.420;2023-11-21T14:49:12;7.45;;;4.60;;